Time;durP1;ratioP1;P1;durP2;ratioP2;P2;SDS_P1;SDS_P2;PMS_P1;PMS_P2;Temp;Humidity;BMP_temperature;BMP_pressure;BME280_temperature;BME280_humidity;BME280_pressure;Samples;Min_cycle;Max_cycle;Signal;HPM_P1;HPM_P2
2023/12/24 00:01:45;;;;;;;6.05;3.45;;;;;;;;;;5034665;28;20043;-85
2023/12/24 00:04:12;;;;;;;7.20;3.70;;;;;;;;;;5038276;28;20059;-86
2023/12/24 00:06:37;;;;;;;6.80;4.03;;;;;;;;;;5054881;28;20067;-86
2023/12/24 00:09:10;;;;;;;7.45;4.00;;;;;;;;;;5054181;28;20056;-84
2023/12/24 00:11:36;;;;;;;6.63;4.05;;;;;;;;;;5045189;28;20083;-85
2023/12/24 00:14:02;;;;;;;7.32;4.13;;;;;;;;;;5050447;28;20043;-85
2023/12/24 00:16:28;;;;;;;6.35;3.50;;;;;;;;;;5042835;28;20132;-86
2023/12/24 00:18:54;;;;;;;6.95;3.83;;;;;;;;;;5057099;28;20041;-84
2023/12/24 00:21:19;;;;;;;7.13;4.00;;;;;;;;;;5058571;28;20438;-86
2023/12/24 00:23:47;;;;;;;6.63;3.72;;;;;;;;;;5055888;28;20024;-86
2023/12/24 00:26:13;;;;;;;6.32;3.63;;;;;;;;;;5057293;28;20099;-85
2023/12/24 00:28:38;;;;;;;6.22;3.78;;;;;;;;;;5045449;28;20029;-85
2023/12/24 00:31:05;;;;;;;6.75;4.15;;;;;;;;;;5035274;28;20131;-86
2023/12/24 00:33:31;;;;;;;8.35;4.30;;;;;;;;;;5047220;28;20045;-85
2023/12/24 00:36:03;;;;;;;6.80;4.03;;;;;;;;;;5060174;28;20119;-85
2023/12/24 00:38:29;;;;;;;6.68;3.58;;;;;;;;;;5054641;28;20104;-85
2023/12/24 00:40:56;;;;;;;6.45;3.80;;;;;;;;;;5036594;28;20549;-84
2023/12/24 00:43:21;;;;;;;6.70;3.80;;;;;;;;;;5049318;28;20043;-85
2023/12/24 00:45:47;;;;;;;6.13;3.42;;;;;;;;;;5022395;28;20127;-87
2023/12/24 00:48:13;;;;;;;5.97;3.20;;;;;;;;;;5044085;28;20048;-87
2023/12/24 00:50:39;;;;;;;5.85;3.40;;;;;;;;;;5043598;28;20384;-86
2023/12/24 00:53:06;;;;;;;6.85;3.22;;;;;;;;;;5030348;28;20037;-86
2023/12/24 00:55:31;;;;;;;6.00;3.28;;;;;;;;;;5071756;28;20029;-86
2023/12/24 00:58:04;;;;;;;6.53;3.25;;;;;;;;;;5048693;28;20033;-86
2023/12/24 01:00:30;;;;;;;5.93;3.10;;;;;;;;;;5046848;28;20480;-86
2023/12/24 01:02:55;;;;;;;6.15;3.30;;;;;;;;;;5046664;28;20036;-86
2023/12/24 01:05:20;;;;;;;6.50;3.30;;;;;;;;;;5049696;28;20051;-86
2023/12/24 01:07:46;;;;;;;6.75;3.53;;;;;;;;;;5055938;28;20037;-86
2023/12/24 01:10:14;;;;;;;8.45;3.85;;;;;;;;;;5056410;28;20055;-86
2023/12/24 01:12:41;;;;;;;8.20;3.88;;;;;;;;;;5052667;28;20036;-87
2023/12/24 01:15:07;;;;;;;8.00;4.18;;;;;;;;;;5070260;28;20033;-86
2023/12/24 01:17:32;;;;;;;7.10;3.35;;;;;;;;;;5046940;28;20033;-86
2023/12/24 01:20:03;;;;;;;7.22;3.80;;;;;;;;;;5041661;28;20037;-86
2023/12/24 01:22:29;;;;;;;7.32;3.50;;;;;;;;;;5047748;28;20472;-86
2023/12/24 01:24:54;;;;;;;6.35;3.53;;;;;;;;;;5047895;28;20048;-86
2023/12/24 01:27:20;;;;;;;6.60;3.85;;;;;;;;;;5052848;28;20076;-86
2023/12/24 01:29:49;;;;;;;6.90;3.65;;;;;;;;;;5057571;28;20040;-85
2023/12/24 01:32:14;;;;;;;6.03;3.35;;;;;;;;;;5040518;28;20508;-86
2023/12/24 01:34:42;;;;;;;6.78;3.78;;;;;;;;;;5053882;28;20044;-86
2023/12/24 01:37:08;;;;;;;6.25;3.60;;;;;;;;;;5067971;28;20029;-86
2023/12/24 01:39:35;;;;;;;6.38;3.28;;;;;;;;;;5066313;28;20111;-86
2023/12/24 01:42:00;;;;;;;6.60;3.77;;;;;;;;;;5058106;28;20385;-85
2023/12/24 01:44:28;;;;;;;6.72;3.97;;;;;;;;;;5047625;28;20033;-86
2023/12/24 01:46:53;;;;;;;6.45;3.40;;;;;;;;;;5045873;28;20039;-86
2023/12/24 01:49:19;;;;;;;6.65;3.45;;;;;;;;;;5044757;28;20098;-85
2023/12/24 01:51:50;;;;;;;6.82;3.35;;;;;;;;;;5048423;28;20032;-87
2023/12/24 01:54:15;;;;;;;5.65;3.35;;;;;;;;;;5054901;28;20036;-86
2023/12/24 01:56:41;;;;;;;5.75;3.00;;;;;;;;;;5041996;28;20112;-86
2023/12/24 01:59:09;;;;;;;6.30;3.40;;;;;;;;;;5069220;28;20559;-86
2023/12/24 02:01:40;;;;;;;5.47;2.85;;;;;;;;;;5042988;28;20166;-86
2023/12/24 02:04:06;;;;;;;7.65;3.53;;;;;;;;;;5046802;28;20592;-86
2023/12/24 02:06:33;;;;;;;6.28;2.97;;;;;;;;;;5054959;28;20037;-86
2023/12/24 02:08:59;;;;;;;6.88;3.65;;;;;;;;;;5052195;28;20484;-86
2023/12/24 02:11:24;;;;;;;7.85;3.72;;;;;;;;;;5052945;28;20033;-87
2023/12/24 02:13:50;;;;;;;8.82;3.97;;;;;;;;;;5051314;28;20567;-86
2023/12/24 02:16:22;;;;;;;7.85;3.65;;;;;;;;;;5049408;28;20776;-86
2023/12/24 02:18:48;;;;;;;6.97;3.60;;;;;;;;;;5051144;28;20496;-87
2023/12/24 02:21:16;;;;;;;7.05;3.53;;;;;;;;;;5040514;28;20116;-86
2023/12/24 02:23:42;;;;;;;7.38;3.97;;;;;;;;;;5056440;28;20531;-86
2023/12/24 02:26:15;;;;;;;7.80;3.25;;;;;;;;;;5046978;28;20032;-86
2023/12/24 02:28:42;;;;;;;7.25;3.55;;;;;;;;;;5055917;28;20082;-86
2023/12/24 02:31:11;;;;;;;7.97;4.03;;;;;;;;;;5048270;28;20433;-85
2023/12/24 02:33:42;;;;;;;7.60;3.80;;;;;;;;;;5058470;28;20132;-86
2023/12/24 02:36:10;;;;;;;6.30;3.15;;;;;;;;;;5049145;28;20037;-86
2023/12/24 02:38:36;;;;;;;5.75;3.22;;;;;;;;;;5055160;28;20029;-86
2023/12/24 02:41:02;;;;;;;5.55;2.67;;;;;;;;;;5044500;28;20064;-85
2023/12/24 02:43:27;;;;;;;6.22;2.92;;;;;;;;;;5050894;28;20412;-86
2023/12/24 02:45:53;;;;;;;5.93;2.55;;;;;;;;;;5058156;28;20116;-86
2023/12/24 02:48:20;;;;;;;5.63;2.10;;;;;;;;;;5045913;28;20055;-86
2023/12/24 02:50:53;;;;;;;7.70;2.60;;;;;;;;;;5054047;28;20537;-86
2023/12/24 02:53:18;;;;;;;5.03;2.38;;;;;;;;;;5054360;28;20044;-85
2023/12/24 02:55:44;;;;;;;4.75;2.22;;;;;;;;;;5064067;28;20033;-86
2023/12/24 02:58:12;;;;;;;5.22;2.33;;;;;;;;;;5042868;28;20028;-86
2023/12/24 03:00:39;;;;;;;4.32;2.10;;;;;;;;;;5056094;28;20396;-85
2023/12/24 03:03:04;;;;;;;5.18;2.40;;;;;;;;;;5034094;28;20044;-85
2023/12/24 03:05:31;;;;;;;4.30;2.00;;;;;;;;;;5026173;28;20041;-85
2023/12/24 03:07:57;;;;;;;4.53;2.00;;;;;;;;;;5061335;28;20119;-86
2023/12/24 03:10:22;;;;;;;3.38;1.40;;;;;;;;;;5035785;28;20774;-86
2023/12/24 03:12:48;;;;;;;3.90;1.65;;;;;;;;;;5045135;28;20051;-85
2023/12/24 03:15:14;;;;;;;3.65;1.60;;;;;;;;;;5062968;28;20029;-86
2023/12/24 03:17:40;;;;;;;3.80;1.60;;;;;;;;;;5039027;28;20045;-86
2023/12/24 03:20:07;;;;;;;5.05;1.58;;;;;;;;;;5059037;28;20062;-86
2023/12/24 03:22:38;;;;;;;2.92;1.25;;;;;;;;;;5010683;28;20032;-86
2023/12/24 03:25:04;;;;;;;3.63;1.42;;;;;;;;;;5051939;28;20056;-85
2023/12/24 03:27:29;;;;;;;3.22;1.50;;;;;;;;;;5051089;28;20043;-86
2023/12/24 03:29:54;;;;;;;3.35;1.33;;;;;;;;;;5059825;28;20033;-86
2023/12/24 03:32:20;;;;;;;3.53;1.40;;;;;;;;;;5043736;28;20064;-86
2023/12/24 03:34:45;;;;;;;2.75;1.30;;;;;;;;;;5051812;28;20503;-86
2023/12/24 03:37:11;;;;;;;3.38;1.58;;;;;;;;;;5033504;28;20029;-85
2023/12/24 03:39:40;;;;;;;4.28;1.30;;;;;;;;;;5045335;28;20146;-85
2023/12/24 03:42:06;;;;;;;3.10;1.45;;;;;;;;;;5042035;28;20552;-87
2023/12/24 03:44:39;;;;;;;3.45;1.30;;;;;;;;;;5045823;28;20167;-86
2023/12/24 03:47:05;;;;;;;3.95;1.10;;;;;;;;;;5031134;28;20675;-86
2023/12/24 03:49:32;;;;;;;3.40;1.40;;;;;;;;;;5066156;28;20037;-86
2023/12/24 03:51:58;;;;;;;2.58;1.30;;;;;;;;;;5064172;28;20032;-86
2023/12/24 03:54:23;;;;;;;3.58;1.58;;;;;;;;;;5052308;28;20040;-86
2023/12/24 03:56:50;;;;;;;4.40;1.63;;;;;;;;;;5051849;28;20094;-85
2023/12/24 03:59:18;;;;;;;4.43;1.80;;;;;;;;;;5064878;28;20029;-86
2023/12/24 04:01:44;;;;;;;3.28;1.70;;;;;;;;;;5033543;28;20036;-86
2023/12/24 04:04:09;;;;;;;4.22;2.13;;;;;;;;;;5039192;28;20048;-85
2023/12/24 04:06:38;;;;;;;4.07;1.75;;;;;;;;;;5055118;28;20459;-86
2023/12/24 04:09:04;;;;;;;4.60;2.20;;;;;;;;;;5030532;28;20049;-85
2023/12/24 04:11:29;;;;;;;4.68;2.00;;;;;;;;;;5041909;28;20094;-86
2023/12/24 04:14:00;;;;;;;4.45;2.20;;;;;;;;;;5056938;28;20033;-86
2023/12/24 04:16:29;;;;;;;3.30;1.63;;;;;;;;;;5040485;28;20048;-85
2023/12/24 04:18:54;;;;;;;4.40;2.20;;;;;;;;;;5044912;28;20077;-85
2023/12/24 04:21:22;;;;;;;3.80;2.00;;;;;;;;;;5050683;28;20033;-86
2023/12/24 04:23:48;;;;;;;4.47;2.30;;;;;;;;;;5037486;28;20523;-85
2023/12/24 04:26:13;;;;;;;4.43;2.30;;;;;;;;;;5038216;28;20029;-86
2023/12/24 04:28:38;;;;;;;4.03;2.10;;;;;;;;;;5051880;28;20045;-87
2023/12/24 04:31:11;;;;;;;4.45;2.67;;;;;;;;;;5053783;28;20071;-86
2023/12/24 04:33:39;;;;;;;4.88;2.30;;;;;;;;;;5040935;28;20040;-86
2023/12/24 04:36:05;;;;;;;3.90;2.30;;;;;;;;;;5038934;28;20404;-87
2023/12/24 04:38:48;;;;;;;4.47;2.80;;;;;;;;;;5053617;28;20028;-86
2023/12/24 04:41:20;;;;;;;4.63;2.38;;;;;;;;;;5058846;28;20435;-86
2023/12/24 04:43:46;;;;;;;4.95;2.78;;;;;;;;;;5055955;28;20039;-87
2023/12/24 04:46:11;;;;;;;6.22;2.60;;;;;;;;;;5055939;28;20115;-86
2023/12/24 04:48:37;;;;;;;5.10;2.83;;;;;;;;;;5023706;28;20454;-87
2023/12/24 04:51:03;;;;;;;4.53;2.40;;;;;;;;;;5050933;28;20025;-86
2023/12/24 04:53:29;;;;;;;4.60;2.78;;;;;;;;;;5039067;28;20067;-85
2023/12/24 04:55:55;;;;;;;5.00;2.85;;;;;;;;;;5047856;28;20457;-86
2023/12/24 04:58:20;;;;;;;4.07;2.45;;;;;;;;;;5053876;28;20059;-86
2023/12/24 05:00:45;;;;;;;4.75;2.85;;;;;;;;;;5051754;28;20037;-86
2023/12/24 05:03:14;;;;;;;4.95;3.00;;;;;;;;;;5045255;28;20506;-86
2023/12/24 05:05:39;;;;;;;6.03;3.03;;;;;;;;;;5037805;28;20136;-86
2023/12/24 05:08:07;;;;;;;5.18;2.92;;;;;;;;;;5041518;28;20458;-87
2023/12/24 05:10:33;;;;;;;4.88;2.92;;;;;;;;;;5054697;28;20032;-86
2023/12/24 05:12:59;;;;;;;5.25;2.70;;;;;;;;;;5042721;28;20086;-85
2023/12/24 05:15:24;;;;;;;5.78;3.13;;;;;;;;;;5039805;28;20033;-85
2023/12/24 05:17:50;;;;;;;5.70;3.05;;;;;;;;;;5041539;28;20064;-85
2023/12/24 05:20:15;;;;;;;5.00;2.90;;;;;;;;;;5070710;28;20033;-85
2023/12/24 05:22:40;;;;;;;5.15;3.00;;;;;;;;;;5055475;28;20112;-85
2023/12/24 05:25:06;;;;;;;6.03;3.50;;;;;;;;;;5063075;28;20412;-85
2023/12/24 05:27:33;;;;;;;5.72;3.33;;;;;;;;;;5037114;28;20388;-85
2023/12/24 05:29:58;;;;;;;5.65;3.40;;;;;;;;;;5040949;28;20037;-83
2023/12/24 05:32:24;;;;;;;5.75;3.42;;;;;;;;;;5044391;28;20033;-86
2023/12/24 05:34:49;;;;;;;5.22;3.00;;;;;;;;;;5054179;28;20043;-86
2023/12/24 05:37:15;;;;;;;6.82;3.92;;;;;;;;;;5038394;28;20048;-86
2023/12/24 05:39:44;;;;;;;7.00;3.97;;;;;;;;;;5044712;28;20385;-86
2023/12/24 05:42:09;;;;;;;6.15;3.50;;;;;;;;;;5050553;28;20494;-86
2023/12/24 05:44:34;;;;;;;6.63;4.18;;;;;;;;;;5046635;28;20152;-86
2023/12/24 05:47:03;;;;;;;7.30;4.20;;;;;;;;;;5046048;28;20183;-87
2023/12/24 05:49:29;;;;;;;7.78;4.45;;;;;;;;;;5056999;28;20081;-85
2023/12/24 05:51:55;;;;;;;6.90;4.57;;;;;;;;;;5052106;28;20036;-86
2023/12/24 05:54:20;;;;;;;7.85;4.65;;;;;;;;;;5069552;28;20549;-86
2023/12/24 05:56:46;;;;;;;7.00;4.30;;;;;;;;;;5057339;28;20032;-86
2023/12/24 05:59:17;;;;;;;7.13;4.18;;;;;;;;;;5063986;28;20115;-86
2023/12/24 06:01:45;;;;;;;7.70;4.72;;;;;;;;;;5056917;28;20044;-85
2023/12/24 06:04:11;;;;;;;9.40;5.20;;;;;;;;;;5072439;28;20045;-86
2023/12/24 06:06:41;;;;;;;8.98;5.07;;;;;;;;;;5057585;28;20047;-87
2023/12/24 06:09:08;;;;;;;8.48;4.82;;;;;;;;;;5065050;28;20029;-86
2023/12/24 06:11:34;;;;;;;8.57;5.15;;;;;;;;;;5055325;28;20570;-87
2023/12/24 06:13:59;;;;;;;8.82;4.97;;;;;;;;;;5047565;28;20052;-86
2023/12/24 06:16:33;;;;;;;8.02;5.00;;;;;;;;;;5063422;28;20044;-86
2023/12/24 06:18:58;;;;;;;8.60;5.13;;;;;;;;;;5034380;28;20431;-86
2023/12/24 06:21:24;;;;;;;7.50;4.32;;;;;;;;;;5056544;28;20033;-86
2023/12/24 06:23:50;;;;;;;6.68;3.97;;;;;;;;;;5032974;28;20039;-85
2023/12/24 06:26:15;;;;;;;6.78;3.83;;;;;;;;;;5052456;28;20404;-87
2023/12/24 06:28:41;;;;;;;6.05;3.50;;;;;;;;;;5047543;28;20040;-87
2023/12/24 06:31:22;;;;;;;;;;;;;;;;;;;;;
2023/12/24 06:33:48;;;;;;;5.25;2.53;;;;;;;;;;5051925;28;20391;-85
2023/12/24 06:36:13;;;;;;;4.22;2.20;;;;;;;;;;5054894;28;20029;-85
2023/12/24 06:38:41;;;;;;;4.10;2.30;;;;;;;;;;5056974;28;20061;-88
2023/12/24 06:41:07;;;;;;;4.20;2.08;;;;;;;;;;5053901;28;20116;-84
2023/12/24 06:43:32;;;;;;;4.00;2.08;;;;;;;;;;5051577;28;20121;-87
2023/12/24 06:45:58;;;;;;;4.40;2.47;;;;;;;;;;5057010;28;20032;-87
2023/12/24 06:48:23;;;;;;;4.47;2.40;;;;;;;;;;5048548;28;20097;-87
2023/12/24 06:50:48;;;;;;;3.88;2.20;;;;;;;;;;5059933;28;20136;-88
2023/12/24 06:53:14;;;;;;;4.88;2.50;;;;;;;;;;5054361;28;20119;-86
2023/12/24 06:55:39;;;;;;;4.18;2.30;;;;;;;;;;5048422;28;20483;-85
2023/12/24 06:58:18;;;;;;;4.30;2.42;;;;;;;;;;5045581;28;20134;-87
2023/12/24 07:00:43;;;;;;;3.97;2.17;;;;;;;;;;5039145;28;20127;-86
2023/12/24 07:03:09;;;;;;;4.13;2.50;;;;;;;;;;5046240;28;20116;-87
2023/12/24 07:05:38;;;;;;;7.10;4.47;;;;;;;;;;5026661;28;20123;-83
2023/12/24 07:08:07;;;;;;;4.30;2.53;;;;;;;;;;5036539;28;20036;-85
2023/12/24 07:10:33;;;;;;;4.50;2.75;;;;;;;;;;5048182;28;20515;-86
2023/12/24 07:13:19;;;;;;;4.38;2.47;;;;;;;;;;5052390;28;20033;-85
2023/12/24 07:15:44;;;;;;;7.47;2.97;;;;;;;;;;5021833;28;20534;-85
2023/12/24 07:18:25;;;;;;;4.70;2.63;;;;;;;;;;5050530;28;20037;-85
2023/12/24 07:20:53;;;;;;;5.43;2.85;;;;;;;;;;5033707;28;20060;-84
2023/12/24 07:23:19;;;;;;;6.00;3.05;;;;;;;;;;5033618;28;20037;-86
2023/12/24 07:25:44;;;;;;;5.53;3.03;;;;;;;;;;5056515;28;20100;-87
2023/12/24 07:28:10;;;;;;;4.63;3.00;;;;;;;;;;5052665;28;20033;-85
2023/12/24 07:30:35;;;;;;;5.15;3.15;;;;;;;;;;5043276;28;20025;-85
2023/12/24 07:33:00;;;;;;;6.07;3.10;;;;;;;;;;5059367;28;20031;-86
2023/12/24 07:35:28;;;;;;;6.35;3.50;;;;;;;;;;5052955;28;20064;-87
2023/12/24 07:37:57;;;;;;;5.68;3.08;;;;;;;;;;5057642;28;20036;-85
2023/12/24 07:40:22;;;;;;;5.45;3.38;;;;;;;;;;5061922;28;20028;-87
2023/12/24 07:42:48;;;;;;;4.88;3.10;;;;;;;;;;5056263;28;20038;-87
2023/12/24 07:45:14;;;;;;;5.53;3.45;;;;;;;;;;5044000;28;20036;-87
2023/12/24 07:47:40;;;;;;;6.10;3.50;;;;;;;;;;5056256;28;20036;-87
2023/12/24 07:50:08;;;;;;;5.93;3.60;;;;;;;;;;5033349;28;20037;-85
2023/12/24 07:52:34;;;;;;;7.55;4.30;;;;;;;;;;5036752;28;20033;-84
2023/12/24 07:54:59;;;;;;;7.28;4.20;;;;;;;;;;5053487;28;20042;-83
2023/12/24 07:57:35;;;;;;;7.70;4.35;;;;;;;;;;5050999;28;20061;-84
2023/12/24 08:00:01;;;;;;;6.75;4.68;;;;;;;;;;5043015;28;20036;-84
2023/12/24 08:02:26;;;;;;;7.03;4.75;;;;;;;;;;5052819;28;20090;-84
2023/12/24 08:04:54;;;;;;;8.88;4.65;;;;;;;;;;5049484;28;20048;-83
2023/12/24 08:07:20;;;;;;;7.68;4.97;;;;;;;;;;5055852;28;20144;-83
2023/12/24 08:09:49;;;;;;;7.15;4.53;;;;;;;;;;5056740;28;20510;-79
2023/12/24 08:12:15;;;;;;;7.40;4.80;;;;;;;;;;5055731;28;20058;-80
2023/12/24 08:14:40;;;;;;;7.95;5.38;;;;;;;;;;5055583;28;20471;-80
2023/12/24 08:17:06;;;;;;;10.88;5.25;;;;;;;;;;5055640;28;20061;-79
2023/12/24 08:19:31;;;;;;;7.28;4.78;;;;;;;;;;5043803;28;20033;-79
2023/12/24 08:21:57;;;;;;;8.32;5.20;;;;;;;;;;5054103;28;20024;-78
2023/12/24 08:24:22;;;;;;;8.30;5.43;;;;;;;;;;5046524;28;20042;-79
2023/12/24 08:26:54;;;;;;;11.63;5.80;;;;;;;;;;5036813;28;20036;-77
2023/12/24 08:29:19;;;;;;;8.13;5.40;;;;;;;;;;5047355;28;20032;-81
2023/12/24 08:31:45;;;;;;;10.10;5.35;;;;;;;;;;5063285;28;20060;-80
2023/12/24 08:34:10;;;;;;;8.82;5.13;;;;;;;;;;5033962;28;20115;-79
2023/12/24 08:36:36;;;;;;;11.38;5.78;;;;;;;;;;5047129;28;20032;-80
2023/12/24 08:39:02;;;;;;;7.82;5.15;;;;;;;;;;5042119;28;20090;-80
2023/12/24 08:41:32;;;;;;;8.85;5.18;;;;;;;;;;5052735;28;20033;-79
2023/12/24 08:43:58;;;;;;;7.55;4.80;;;;;;;;;;5044983;28;20434;-83
2023/12/24 08:46:23;;;;;;;7.88;5.20;;;;;;;;;;5051585;28;20032;-82
2023/12/24 08:48:48;;;;;;;8.18;4.60;;;;;;;;;;5044297;28;20511;-83
2023/12/24 08:51:14;;;;;;;8.40;4.90;;;;;;;;;;5068352;28;20427;-82
2023/12/24 08:53:39;;;;;;;8.18;4.95;;;;;;;;;;5042411;28;20150;-82
2023/12/24 08:56:05;;;;;;;7.22;4.20;;;;;;;;;;5050957;28;20049;-82
2023/12/24 08:58:33;;;;;;;7.82;4.72;;;;;;;;;;5053704;28;20040;-83
2023/12/24 09:00:59;;;;;;;6.15;4.05;;;;;;;;;;5030349;28;20387;-81
2023/12/24 09:03:25;;;;;;;8.27;4.53;;;;;;;;;;5036032;28;20037;-82
2023/12/24 09:05:50;;;;;;;6.63;4.00;;;;;;;;;;5038515;28;20060;-81
2023/12/24 09:08:16;;;;;;;6.47;3.72;;;;;;;;;;5049596;28;20071;-83
2023/12/24 09:10:42;;;;;;;7.32;3.60;;;;;;;;;;5044080;28;20037;-81
2023/12/24 09:13:08;;;;;;;5.53;3.13;;;;;;;;;;5053093;28;20579;-80
2023/12/24 09:15:33;;;;;;;7.03;3.38;;;;;;;;;;5053277;28;20048;-81
2023/12/24 09:18:08;;;;;;;4.90;3.13;;;;;;;;;;5052297;28;20044;-79
2023/12/24 09:20:33;;;;;;;5.53;3.10;;;;;;;;;;5048380;28;20060;-82
2023/12/24 09:23:04;;;;;;;5.38;3.00;;;;;;;;;;5035846;28;20130;-80
2023/12/24 09:25:52;;;;;;;4.25;2.60;;;;;;;;;;5054585;28;20044;-81
2023/12/24 09:28:18;;;;;;;4.45;2.58;;;;;;;;;;5040365;28;20103;-82
2023/12/24 09:30:43;;;;;;;5.20;2.60;;;;;;;;;;5056143;28;20049;-82
2023/12/24 09:33:09;;;;;;;4.35;2.17;;;;;;;;;;5052323;28;20029;-80
2023/12/24 09:35:35;;;;;;;4.53;2.40;;;;;;;;;;5049093;28;20064;-80
2023/12/24 09:38:00;;;;;;;4.32;2.10;;;;;;;;;;5056127;28;20828;-80
2023/12/24 09:40:26;;;;;;;4.15;1.63;;;;;;;;;;5038611;28;20084;-81
2023/12/24 09:42:52;;;;;;;3.08;1.67;;;;;;;;;;5044858;28;20676;-80
2023/12/24 09:45:17;;;;;;;3.35;1.60;;;;;;;;;;5057867;28;20045;-81
2023/12/24 09:47:43;;;;;;;3.97;1.50;;;;;;;;;;5054200;28;20044;-80
2023/12/24 09:50:08;;;;;;;3.35;1.50;;;;;;;;;;5053300;28;20656;-80
2023/12/24 09:52:34;;;;;;;2.90;1.48;;;;;;;;;;5033237;28;20039;-80
2023/12/24 09:55:02;;;;;;;3.63;1.70;;;;;;;;;;5044207;28;20045;-79
2023/12/24 09:57:30;;;;;;;2.53;1.23;;;;;;;;;;5039845;28;20067;-80
2023/12/24 09:59:55;;;;;;;2.28;1.17;;;;;;;;;;5046427;28;20555;-79
2023/12/24 10:02:21;;;;;;;2.75;1.35;;;;;;;;;;5035701;28;20139;-80
2023/12/24 10:04:49;;;;;;;3.30;1.40;;;;;;;;;;5057997;28;20048;-80
2023/12/24 10:07:19;;;;;;;2.40;1.20;;;;;;;;;;5061677;28;20029;-80
2023/12/24 10:09:47;;;;;;;2.50;1.23;;;;;;;;;;5040541;28;20404;-83
2023/12/24 10:12:35;;;;;;;2.63;0.90;;;;;;;;;;5049421;28;20159;-85
2023/12/24 10:15:01;;;;;;;2.20;0.93;;;;;;;;;;5013487;28;20046;-83
2023/12/24 10:17:36;;;;;;;2.83;0.90;;;;;;;;;;5009262;28;20448;-84
2023/12/24 10:20:10;;;;;;;1.90;1.00;;;;;;;;;;5004662;28;20034;-83
2023/12/24 10:22:36;;;;;;;2.00;1.10;;;;;;;;;;5011445;28;20065;-84
2023/12/24 10:25:09;;;;;;;2.30;1.10;;;;;;;;;;5001411;28;20080;-81
2023/12/24 10:27:35;;;;;;;1.83;0.80;;;;;;;;;;5006480;28;20103;-82
2023/12/24 10:30:13;;;;;;;2.03;0.85;;;;;;;;;;5015277;28;20037;-82
2023/12/24 10:33:08;;;;;;;1.98;0.88;;;;;;;;;;5011178;28;20037;-82
2023/12/24 10:35:34;;;;;;;1.92;0.70;;;;;;;;;;5007347;28;20038;-82
2023/12/24 10:38:06;;;;;;;1.67;0.70;;;;;;;;;;5013861;28;20041;-81
2023/12/24 10:40:32;;;;;;;1.73;0.60;;;;;;;;;;4992849;28;20485;-82
2023/12/24 10:42:57;;;;;;;0.93;0.50;;;;;;;;;;5033585;28;20037;-83
2023/12/24 10:45:22;;;;;;;1.20;0.50;;;;;;;;;;5002443;28;20144;-81
2023/12/24 10:47:50;;;;;;;0.73;0.32;;;;;;;;;;5000137;28;20107;-81
2023/12/24 10:50:16;;;;;;;1.25;0.55;;;;;;;;;;4985978;28;20061;-83
2023/12/24 10:52:41;;;;;;;1.95;0.40;;;;;;;;;;5068040;28;20648;-84
2023/12/24 10:55:09;;;;;;;1.02;0.40;;;;;;;;;;5055207;28;20070;-83
2023/12/24 10:57:34;;;;;;;;;;;;;;;;;;5056414;28;20040;-84
2023/12/24 11:00:07;;;;;;;0.82;0.50;;;;;;;;;;5052484;28;20303;-83
2023/12/24 11:02:36;;;;;;;1.25;0.60;;;;;;;;;;5058180;28;20110;-85
2023/12/24 11:05:02;;;;;;;1.10;0.47;;;;;;;;;;5046490;28;20037;-83
2023/12/24 11:07:35;;;;;;;0.77;0.40;;;;;;;;;;5032445;28;20069;-84
2023/12/24 11:10:02;;;;;;;1.38;0.50;;;;;;;;;;5052065;28;20036;-83
2023/12/24 11:12:38;;;;;;;1.92;0.60;;;;;;;;;;5073853;28;20483;-83
2023/12/24 11:15:04;;;;;;;1.25;0.63;;;;;;;;;;5062676;28;20131;-83
2023/12/24 11:17:38;;;;;;;1.17;0.50;;;;;;;;;;5059628;28;20174;-80
2023/12/24 11:20:24;;;;;;;2.78;1.00;;;;;;;;;;5056252;28;20116;-80
2023/12/24 11:23:13;;;;;;;2.38;0.85;;;;;;;;;;5064104;28;20045;-78
2023/12/24 11:25:46;;;;;;;1.73;0.63;;;;;;;;;;5044467;28;20459;-80
2023/12/24 11:28:33;;;;;;;3.97;0.70;;;;;;;;;;5052705;28;20113;-80
2023/12/24 11:30:58;;;;;;;3.03;0.57;;;;;;;;;;5043751;28;20499;-79
2023/12/24 11:33:33;;;;;;;2.75;1.15;;;;;;;;;;5054131;28;20039;-81
2023/12/24 11:36:04;;;;;;;1.60;0.60;;;;;;;;;;5051346;28;20028;-83
2023/12/24 11:38:35;;;;;;;1.23;0.50;;;;;;;;;;5061995;28;20088;-80
2023/12/24 11:41:20;;;;;;;1.27;0.50;;;;;;;;;;5051783;28;20048;-80
2023/12/24 11:43:56;;;;;;;1.38;0.70;;;;;;;;;;5037803;28;20507;-81
2023/12/24 11:46:23;;;;;;;1.38;0.50;;;;;;;;;;5051613;28;20040;-81
2023/12/24 11:48:48;;;;;;;1.85;0.80;;;;;;;;;;5069585;28;20116;-81
2023/12/24 11:51:28;;;;;;;1.75;0.70;;;;;;;;;;5069610;28;20123;-81
2023/12/24 11:54:03;;;;;;;1.20;0.52;;;;;;;;;;5054748;28;20036;-82
2023/12/24 11:56:29;;;;;;;1.27;0.60;;;;;;;;;;5042101;28;20036;-81
2023/12/24 11:58:54;;;;;;;1.33;0.60;;;;;;;;;;5053062;28;20040;-82
2023/12/24 12:01:24;;;;;;;2.22;0.70;;;;;;;;;;5048527;28;20426;-81
2023/12/24 12:03:54;;;;;;;1.90;0.68;;;;;;;;;;5051871;28;20037;-81
2023/12/24 12:06:19;;;;;;;1.50;0.68;;;;;;;;;;5052261;28;20057;-81
2023/12/24 12:08:46;;;;;;;1.75;0.70;;;;;;;;;;5040004;28;20573;-81
2023/12/24 12:11:12;;;;;;;1.80;0.80;;;;;;;;;;5053844;28;20087;-82
2023/12/24 12:13:38;;;;;;;1.40;0.70;;;;;;;;;;5054241;28;20044;-82
2023/12/24 12:16:13;;;;;;;1.77;0.80;;;;;;;;;;5060602;28;20029;-81
2023/12/24 12:18:39;;;;;;;1.63;0.63;;;;;;;;;;5035602;28;20036;-81
2023/12/24 12:21:04;;;;;;;2.00;0.75;;;;;;;;;;5037984;28;20081;-81
2023/12/24 12:23:29;;;;;;;4.45;0.90;;;;;;;;;;5067919;28;20036;-81
2023/12/24 12:26:00;;;;;;;1.60;0.80;;;;;;;;;;5052671;28;20989;-81
2023/12/24 12:28:25;;;;;;;1.55;0.65;;;;;;;;;;5036567;28;20520;-82
2023/12/24 12:30:51;;;;;;;1.63;0.80;;;;;;;;;;5052230;28;20047;-83
2023/12/24 12:33:17;;;;;;;2.05;0.80;;;;;;;;;;5049125;28;20036;-82
2023/12/24 12:35:42;;;;;;;2.63;0.77;;;;;;;;;;5024325;28;20080;-82
2023/12/24 12:38:08;;;;;;;1.38;0.47;;;;;;;;;;5053237;28;20044;-83
2023/12/24 12:40:33;;;;;;;1.35;0.70;;;;;;;;;;5052765;28;20040;-83
2023/12/24 12:42:59;;;;;;;1.60;0.77;;;;;;;;;;5036677;28;20591;-82
2023/12/24 12:45:24;;;;;;;1.95;0.70;;;;;;;;;;5046290;28;20041;-83
2023/12/24 12:47:50;;;;;;;1.23;0.60;;;;;;;;;;5060958;28;20451;-83
2023/12/24 12:50:15;;;;;;;1.63;0.80;;;;;;;;;;5036833;28;20132;-83
2023/12/24 12:52:41;;;;;;;1.45;0.60;;;;;;;;;;5052108;28;20114;-83
2023/12/24 12:55:11;;;;;;;1.27;0.60;;;;;;;;;;5033578;28;20530;-83
2023/12/24 12:57:37;;;;;;;2.47;0.80;;;;;;;;;;5050902;28;20083;-82
2023/12/24 13:00:11;;;;;;;3.50;0.60;;;;;;;;;;5042903;28;20418;-82
2023/12/24 13:19:47;;;;;;;3.85;1.02;;;;;;;;;;5042753;28;20052;-82
2023/12/24 13:22:12;;;;;;;;;;;;;;;;;;5053259;28;20486;-84
2023/12/24 13:24:38;;;;;;;2.33;0.95;;;;;;;;;;5088141;28;20031;-84
2023/12/24 13:27:04;;;;;;;2.35;1.02;;;;;;;;;;5051019;28;20416;-87
2023/12/24 13:29:35;;;;;;;2.10;0.90;;;;;;;;;;5039639;28;20043;-81
2023/12/24 13:32:01;;;;;;;3.13;0.90;;;;;;;;;;5033215;28;20036;-84
2023/12/24 13:34:33;;;;;;;3.42;1.00;;;;;;;;;;5067361;28;20117;-83
2023/12/24 13:36:59;;;;;;;2.92;0.90;;;;;;;;;;5032676;28;20042;-85
2023/12/24 13:39:24;;;;;;;2.72;0.90;;;;;;;;;;5060050;28;20393;-84
2023/12/24 13:41:56;;;;;;;2.85;0.98;;;;;;;;;;5051593;28;20079;-85
2023/12/24 13:44:21;;;;;;;2.65;1.13;;;;;;;;;;5033475;28;20021;-85
2023/12/24 13:46:46;;;;;;;2.45;1.00;;;;;;;;;;5051802;28;20033;-85
2023/12/24 13:49:12;;;;;;;2.30;1.00;;;;;;;;;;5040954;28;20091;-84
2023/12/24 13:51:37;;;;;;;2.47;1.30;;;;;;;;;;5054437;28;20032;-85
2023/12/24 13:54:03;;;;;;;3.95;1.10;;;;;;;;;;5054151;28;20044;-84
2023/12/24 13:56:29;;;;;;;3.03;1.08;;;;;;;;;;5052333;28;20043;-83
2023/12/24 13:58:55;;;;;;;2.63;1.20;;;;;;;;;;5068621;28;20507;-84
2023/12/24 14:01:20;;;;;;;3.58;1.10;;;;;;;;;;5047392;28;20037;-84
2023/12/24 14:03:45;;;;;;;3.78;1.40;;;;;;;;;;5062429;28;20466;-84
2023/12/24 14:06:11;;;;;;;3.10;1.48;;;;;;;;;;5054580;28;20365;-83
2023/12/24 14:08:37;;;;;;;2.90;1.10;;;;;;;;;;5046231;28;20033;-83
2023/12/24 14:11:03;;;;;;;2.70;1.10;;;;;;;;;;5054010;28;20536;-83
2023/12/24 14:13:31;;;;;;;2.83;0.95;;;;;;;;;;5054701;28;20143;-84
2023/12/24 14:15:57;;;;;;;3.28;1.15;;;;;;;;;;5072272;28;20037;-82
2023/12/24 14:18:25;;;;;;;1.90;1.00;;;;;;;;;;5045335;28;20074;-82
2023/12/24 14:20:51;;;;;;;3.08;1.00;;;;;;;;;;5045959;28;20043;-82
2023/12/24 14:23:16;;;;;;;2.22;1.10;;;;;;;;;;5065376;28;20499;-83
2023/12/24 14:25:43;;;;;;;2.15;0.98;;;;;;;;;;5052591;28;20124;-84
2023/12/24 14:28:08;;;;;;;2.72;1.20;;;;;;;;;;5041817;28;20037;-83
2023/12/24 14:30:37;;;;;;;3.95;1.30;;;;;;;;;;5057324;28;20051;-82
2023/12/24 14:33:03;;;;;;;5.40;1.58;;;;;;;;;;5055391;28;20036;-83
2023/12/24 14:35:29;;;;;;;2.22;1.00;;;;;;;;;;5016046;28;20391;-84
2023/12/24 14:37:56;;;;;;;3.78;1.05;;;;;;;;;;5053641;28;20025;-84
2023/12/24 14:40:22;;;;;;;2.40;0.85;;;;;;;;;;5054209;28;20384;-84
2023/12/24 14:42:47;;;;;;;4.13;1.00;;;;;;;;;;5049738;28;20038;-83
2023/12/24 14:45:35;;;;;;;1.95;0.98;;;;;;;;;;5039475;28;20404;-84
2023/12/24 14:48:00;;;;;;;2.28;1.10;;;;;;;;;;5021110;28;20050;-82
2023/12/24 14:50:31;;;;;;;6.90;1.13;;;;;;;;;;4998791;28;20128;-83
2023/12/24 14:53:00;;;;;;;3.70;1.17;;;;;;;;;;5023410;28;20548;-84
2023/12/24 14:55:26;;;;;;;2.65;1.13;;;;;;;;;;5020169;28;20041;-82
2023/12/24 14:57:54;;;;;;;3.00;1.40;;;;;;;;;;5022173;28;20055;-83
2023/12/24 15:00:20;;;;;;;4.10;1.80;;;;;;;;;;4996235;28;21011;-84
2023/12/24 15:02:45;;;;;;;3.60;1.40;;;;;;;;;;5022024;28;20041;-83
2023/12/24 15:05:11;;;;;;;2.28;1.00;;;;;;;;;;5006567;28;20038;-83